sensor_id;sensor_type;location;lat;lon;timestamp;temperature;humidity
22645;DHT22;11489;50.834;6.752;2023-07-08T00:01:13;18.50;51.60
22645;DHT22;11489;50.834;6.752;2023-07-08T00:03:39;18.40;51.90
22645;DHT22;11489;50.834;6.752;2023-07-08T00:06:11;18.40;52.10
22645;DHT22;11489;50.834;6.752;2023-07-08T00:08:37;18.30;52.40
22645;DHT22;11489;50.834;6.752;2023-07-08T00:11:11;18.20;52.40
22645;DHT22;11489;50.834;6.752;2023-07-08T00:13:36;18.10;53.00
22645;DHT22;11489;50.834;6.752;2023-07-08T00:16:02;18.10;52.70
22645;DHT22;11489;50.834;6.752;2023-07-08T00:18:28;18.00;52.80
22645;DHT22;11489;50.834;6.752;2023-07-08T00:20:53;18.00;53.00
22645;DHT22;11489;50.834;6.752;2023-07-08T00:23:19;17.90;53.10
22645;DHT22;11489;50.834;6.752;2023-07-08T00:25:47;17.90;53.20
22645;DHT22;11489;50.834;6.752;2023-07-08T00:28:21;17.80;53.40
22645;DHT22;11489;50.834;6.752;2023-07-08T00:30:47;17.80;54.00
22645;DHT22;11489;50.834;6.752;2023-07-08T00:33:13;17.70;53.60
22645;DHT22;11489;50.834;6.752;2023-07-08T00:35:40;17.70;53.70
22645;DHT22;11489;50.834;6.752;2023-07-08T00:38:26;17.60;53.90
22645;DHT22;11489;50.834;6.752;2023-07-08T00:41:20;17.70;54.90
22645;DHT22;11489;50.834;6.752;2023-07-08T00:43:54;17.60;55.10
22645;DHT22;11489;50.834;6.752;2023-07-08T00:48:59;17.50;54.50
22645;DHT22;11489;50.834;6.752;2023-07-08T00:51:25;17.50;54.70
22645;DHT22;11489;50.834;6.752;2023-07-08T00:53:52;17.40;54.60
22645;DHT22;11489;50.834;6.752;2023-07-08T00:56:20;17.40;54.70
22645;DHT22;11489;50.834;6.752;2023-07-08T00:58:55;17.40;54.90
22645;DHT22;11489;50.834;6.752;2023-07-08T01:01:22;17.40;55.30
22645;DHT22;11489;50.834;6.752;2023-07-08T01:03:54;17.30;55.00
22645;DHT22;11489;50.834;6.752;2023-07-08T01:06:23;17.30;55.20
22645;DHT22;11489;50.834;6.752;2023-07-08T01:08:59;17.30;55.30
22645;DHT22;11489;50.834;6.752;2023-07-08T01:11:27;17.30;55.30
22645;DHT22;11489;50.834;6.752;2023-07-08T01:13:53;17.30;55.40
22645;DHT22;11489;50.834;6.752;2023-07-08T01:16:19;17.30;55.50
22645;DHT22;11489;50.834;6.752;2023-07-08T01:18:45;17.30;55.60
22645;DHT22;11489;50.834;6.752;2023-07-08T01:21:44;17.30;55.60
22645;DHT22;11489;50.834;6.752;2023-07-08T01:24:11;17.30;56.40
22645;DHT22;11489;50.834;6.752;2023-07-08T01:26:40;17.30;55.70
22645;DHT22;11489;50.834;6.752;2023-07-08T01:29:06;17.30;56.00
22645;DHT22;11489;50.834;6.752;2023-07-08T01:31:33;17.30;56.00
22645;DHT22;11489;50.834;6.752;2023-07-08T01:34:00;17.30;56.20
22645;DHT22;11489;50.834;6.752;2023-07-08T01:36:29;17.20;56.20
22645;DHT22;11489;50.834;6.752;2023-07-08T01:38:56;17.20;56.50
22645;DHT22;11489;50.834;6.752;2023-07-08T01:41:22;17.20;56.40
22645;DHT22;11489;50.834;6.752;2023-07-08T01:43:48;17.20;56.40
22645;DHT22;11489;50.834;6.752;2023-07-08T01:46:23;17.20;56.50
22645;DHT22;11489;50.834;6.752;2023-07-08T01:48:53;17.10;57.00
22645;DHT22;11489;50.834;6.752;2023-07-08T01:51:20;17.10;56.70
22645;DHT22;11489;50.834;6.752;2023-07-08T01:53:47;17.10;56.60
22645;DHT22;11489;50.834;6.752;2023-07-08T01:56:13;17.10;56.70
22645;DHT22;11489;50.834;6.752;2023-07-08T01:58:39;17.00;56.80
22645;DHT22;11489;50.834;6.752;2023-07-08T02:01:06;17.00;56.90
22645;DHT22;11489;50.834;6.752;2023-07-08T02:03:32;17.00;56.90
22645;DHT22;11489;50.834;6.752;2023-07-08T02:05:58;17.00;57.00
22645;DHT22;11489;50.834;6.752;2023-07-08T02:08:24;16.90;57.00
22645;DHT22;11489;50.834;6.752;2023-07-08T02:10:52;16.90;57.10
22645;DHT22;11489;50.834;6.752;2023-07-08T02:13:19;16.90;57.20
22645;DHT22;11489;50.834;6.752;2023-07-08T02:15:44;16.80;57.20
22645;DHT22;11489;50.834;6.752;2023-07-08T02:18:10;16.80;57.30
22645;DHT22;11489;50.834;6.752;2023-07-08T02:20:36;16.80;57.40
22645;DHT22;11489;50.834;6.752;2023-07-08T02:23:01;16.70;57.40
22645;DHT22;11489;50.834;6.752;2023-07-08T02:25:27;16.70;57.50
22645;DHT22;11489;50.834;6.752;2023-07-08T02:27:54;16.70;57.60
22645;DHT22;11489;50.834;6.752;2023-07-08T02:30:26;16.60;57.70
22645;DHT22;11489;50.834;6.752;2023-07-08T02:32:52;16.60;58.00
22645;DHT22;11489;50.834;6.752;2023-07-08T02:35:30;16.50;57.90
22645;DHT22;11489;50.834;6.752;2023-07-08T02:37:57;16.50;58.40
22645;DHT22;11489;50.834;6.752;2023-07-08T02:40:24;16.40;58.10
22645;DHT22;11489;50.834;6.752;2023-07-08T02:42:50;16.40;58.20
22645;DHT22;11489;50.834;6.752;2023-07-08T02:45:16;16.30;58.30
22645;DHT22;11489;50.834;6.752;2023-07-08T02:47:43;16.30;58.50
22645;DHT22;11489;50.834;6.752;2023-07-08T02:50:09;16.30;58.60
22645;DHT22;11489;50.834;6.752;2023-07-08T02:52:35;16.20;58.70
22645;DHT22;11489;50.834;6.752;2023-07-08T02:55:01;16.20;58.80
22645;DHT22;11489;50.834;6.752;2023-07-08T02:57:27;16.20;58.90
22645;DHT22;11489;50.834;6.752;2023-07-08T02:59:53;16.10;59.00
22645;DHT22;11489;50.834;6.752;2023-07-08T03:02:19;16.10;59.10
22645;DHT22;11489;50.834;6.752;2023-07-08T03:04:44;16.10;59.30
22645;DHT22;11489;50.834;6.752;2023-07-08T03:07:11;16.00;59.40
22645;DHT22;11489;50.834;6.752;2023-07-08T03:09:37;16.00;59.60
22645;DHT22;11489;50.834;6.752;2023-07-08T03:12:06;16.00;59.80
22645;DHT22;11489;50.834;6.752;2023-07-08T03:14:32;16.00;60.00
22645;DHT22;11489;50.834;6.752;2023-07-08T03:16:58;16.00;60.00
22645;DHT22;11489;50.834;6.752;2023-07-08T03:19:24;15.90;60.00
22645;DHT22;11489;50.834;6.752;2023-07-08T03:21:49;16.00;60.20
22645;DHT22;11489;50.834;6.752;2023-07-08T03:24:15;15.90;60.30
22645;DHT22;11489;50.834;6.752;2023-07-08T03:26:44;16.00;60.50
22645;DHT22;11489;50.834;6.752;2023-07-08T03:29:15;16.00;60.60
22645;DHT22;11489;50.834;6.752;2023-07-08T03:31:42;16.00;61.00
22645;DHT22;11489;50.834;6.752;2023-07-08T03:34:13;16.00;60.70
22645;DHT22;11489;50.834;6.752;2023-07-08T03:36:43;16.00;61.10
22645;DHT22;11489;50.834;6.752;2023-07-08T03:39:14;16.00;61.10
22645;DHT22;11489;50.834;6.752;2023-07-08T03:41:40;16.00;61.00
22645;DHT22;11489;50.834;6.752;2023-07-08T03:44:06;15.90;61.10
22645;DHT22;11489;50.834;6.752;2023-07-08T03:46:32;16.00;61.20
22645;DHT22;11489;50.834;6.752;2023-07-08T03:48:57;16.00;61.40
22645;DHT22;11489;50.834;6.752;2023-07-08T03:51:27;16.00;61.60
22645;DHT22;11489;50.834;6.752;2023-07-08T03:53:53;16.00;62.00
22645;DHT22;11489;50.834;6.752;2023-07-08T03:56:19;16.10;62.00
22645;DHT22;11489;50.834;6.752;2023-07-08T03:58:44;16.10;62.10
22645;DHT22;11489;50.834;6.752;2023-07-08T04:01:14;16.20;62.10
22645;DHT22;11489;50.834;6.752;2023-07-08T04:03:41;16.30;62.40
22645;DHT22;11489;50.834;6.752;2023-07-08T04:06:06;16.30;62.00
22645;DHT22;11489;50.834;6.752;2023-07-08T04:08:32;16.40;62.10
22645;DHT22;11489;50.834;6.752;2023-07-08T04:10:58;16.40;62.00
22645;DHT22;11489;50.834;6.752;2023-07-08T04:13:23;16.40;62.10
22645;DHT22;11489;50.834;6.752;2023-07-08T04:15:58;16.40;62.00
22645;DHT22;11489;50.834;6.752;2023-07-08T04:18:24;16.50;62.60
22645;DHT22;11489;50.834;6.752;2023-07-08T04:20:50;16.60;62.40
22645;DHT22;11489;50.834;6.752;2023-07-08T04:23:18;16.70;62.80
22645;DHT22;11489;50.834;6.752;2023-07-08T04:25:44;16.80;63.20
22645;DHT22;11489;50.834;6.752;2023-07-08T04:28:10;17.00;63.40
22645;DHT22;11489;50.834;6.752;2023-07-08T04:30:36;17.20;63.30
22645;DHT22;11489;50.834;6.752;2023-07-08T04:33:07;17.40;63.30
22645;DHT22;11489;50.834;6.752;2023-07-08T04:35:36;17.60;63.00
22645;DHT22;11489;50.834;6.752;2023-07-08T04:38:05;17.80;62.40
22645;DHT22;11489;50.834;6.752;2023-07-08T04:40:36;17.90;61.90
22645;DHT22;11489;50.834;6.752;2023-07-08T04:43:09;18.00;61.40
22645;DHT22;11489;50.834;6.752;2023-07-08T04:45:39;18.00;61.10
22645;DHT22;11489;50.834;6.752;2023-07-08T04:48:05;18.10;60.80
22645;DHT22;11489;50.834;6.752;2023-07-08T04:50:45;18.10;60.60
22645;DHT22;11489;50.834;6.752;2023-07-08T04:53:12;18.10;60.70
22645;DHT22;11489;50.834;6.752;2023-07-08T04:55:41;18.10;60.30
22645;DHT22;11489;50.834;6.752;2023-07-08T04:58:08;18.10;60.30
22645;DHT22;11489;50.834;6.752;2023-07-08T05:00:34;18.10;60.30
22645;DHT22;11489;50.834;6.752;2023-07-08T05:03:00;18.10;60.30
22645;DHT22;11489;50.834;6.752;2023-07-08T05:05:25;18.10;60.40
22645;DHT22;11489;50.834;6.752;2023-07-08T05:07:51;18.10;60.40
22645;DHT22;11489;50.834;6.752;2023-07-08T05:10:18;18.10;60.40
22645;DHT22;11489;50.834;6.752;2023-07-08T05:12:44;18.20;60.60
22645;DHT22;11489;50.834;6.752;2023-07-08T05:15:10;18.20;60.80
22645;DHT22;11489;50.834;6.752;2023-07-08T05:17:38;18.20;60.80
22645;DHT22;11489;50.834;6.752;2023-07-08T05:20:06;18.30;60.80
22645;DHT22;11489;50.834;6.752;2023-07-08T05:22:33;18.40;60.80
22645;DHT22;11489;50.834;6.752;2023-07-08T05:24:59;18.50;60.80
22645;DHT22;11489;50.834;6.752;2023-07-08T05:27:25;18.70;60.90
22645;DHT22;11489;50.834;6.752;2023-07-08T05:29:51;18.80;60.90
22645;DHT22;11489;50.834;6.752;2023-07-08T05:32:17;19.00;61.00
22645;DHT22;11489;50.834;6.752;2023-07-08T05:34:43;19.10;60.90
22645;DHT22;11489;50.834;6.752;2023-07-08T05:37:10;19.30;60.80
22645;DHT22;11489;50.834;6.752;2023-07-08T05:39:36;19.50;60.60
22645;DHT22;11489;50.834;6.752;2023-07-08T05:42:02;19.70;60.20
22645;DHT22;11489;50.834;6.752;2023-07-08T05:44:28;19.90;59.70
22645;DHT22;11489;50.834;6.752;2023-07-08T05:46:54;20.10;59.40
22645;DHT22;11489;50.834;6.752;2023-07-08T05:49:19;20.30;59.10
22645;DHT22;11489;50.834;6.752;2023-07-08T05:51:45;20.50;58.60
22645;DHT22;11489;50.834;6.752;2023-07-08T05:54:11;20.70;58.30
22645;DHT22;11489;50.834;6.752;2023-07-08T05:56:37;20.80;57.90
22645;DHT22;11489;50.834;6.752;2023-07-08T05:59:03;21.00;57.70
22645;DHT22;11489;50.834;6.752;2023-07-08T06:01:30;21.20;58.20
22645;DHT22;11489;50.834;6.752;2023-07-08T06:03:57;21.40;57.40
22645;DHT22;11489;50.834;6.752;2023-07-08T06:06:27;21.60;57.10
22645;DHT22;11489;50.834;6.752;2023-07-08T06:08:53;21.80;56.90
22645;DHT22;11489;50.834;6.752;2023-07-08T06:11:20;22.10;56.80
22645;DHT22;11489;50.834;6.752;2023-07-08T06:13:47;22.40;56.50
22645;DHT22;11489;50.834;6.752;2023-07-08T06:16:13;22.70;56.10
22645;DHT22;11489;50.834;6.752;2023-07-08T06:18:39;22.90;55.50
22645;DHT22;11489;50.834;6.752;2023-07-08T06:21:05;23.20;55.30
22645;DHT22;11489;50.834;6.752;2023-07-08T06:23:31;23.50;55.00
22645;DHT22;11489;50.834;6.752;2023-07-08T06:25:56;23.80;54.70
22645;DHT22;11489;50.834;6.752;2023-07-08T06:28:22;24.10;54.30
22645;DHT22;11489;50.834;6.752;2023-07-08T06:30:49;24.50;54.10
22645;DHT22;11489;50.834;6.752;2023-07-08T06:33:15;24.80;53.80
22645;DHT22;11489;50.834;6.752;2023-07-08T06:35:41;25.10;53.20
22645;DHT22;11489;50.834;6.752;2023-07-08T06:38:07;25.40;52.60
22645;DHT22;11489;50.834;6.752;2023-07-08T06:40:34;25.60;51.80
22645;DHT22;11489;50.834;6.752;2023-07-08T06:43:03;25.60;51.00
22645;DHT22;11489;50.834;6.752;2023-07-08T06:45:28;25.70;50.50
22645;DHT22;11489;50.834;6.752;2023-07-08T06:47:54;25.70;50.10
22645;DHT22;11489;50.834;6.752;2023-07-08T06:50:20;25.70;49.80
22645;DHT22;11489;50.834;6.752;2023-07-08T06:52:45;25.60;49.50
22645;DHT22;11489;50.834;6.752;2023-07-08T06:55:11;25.50;49.40
22645;DHT22;11489;50.834;6.752;2023-07-08T06:57:38;25.40;49.30
22645;DHT22;11489;50.834;6.752;2023-07-08T07:00:06;25.30;49.20
22645;DHT22;11489;50.834;6.752;2023-07-08T07:02:32;25.30;49.10
22645;DHT22;11489;50.834;6.752;2023-07-08T07:04:58;25.20;49.00
22645;DHT22;11489;50.834;6.752;2023-07-08T07:07:30;25.20;49.00
22645;DHT22;11489;50.834;6.752;2023-07-08T07:09:56;25.20;49.20
22645;DHT22;11489;50.834;6.752;2023-07-08T07:12:24;25.10;49.80
22645;DHT22;11489;50.834;6.752;2023-07-08T07:14:50;25.00;50.00
22645;DHT22;11489;50.834;6.752;2023-07-08T07:17:22;24.80;49.90
22645;DHT22;11489;50.834;6.752;2023-07-08T07:19:48;24.70;50.20
22645;DHT22;11489;50.834;6.752;2023-07-08T07:22:15;24.50;50.30
22645;DHT22;11489;50.834;6.752;2023-07-08T07:24:40;24.30;50.40
22645;DHT22;11489;50.834;6.752;2023-07-08T07:27:08;24.20;50.60
22645;DHT22;11489;50.834;6.752;2023-07-08T07:29:48;24.10;50.80
22645;DHT22;11489;50.834;6.752;2023-07-08T07:32:15;24.10;51.40
22645;DHT22;11489;50.834;6.752;2023-07-08T07:34:41;24.00;51.60
22645;DHT22;11489;50.834;6.752;2023-07-08T07:37:14;24.00;51.60
22645;DHT22;11489;50.834;6.752;2023-07-08T07:39:41;24.10;51.70
22645;DHT22;11489;50.834;6.752;2023-07-08T07:42:07;24.20;52.00
22645;DHT22;11489;50.834;6.752;2023-07-08T07:44:32;24.30;52.30
22645;DHT22;11489;50.834;6.752;2023-07-08T07:46:58;24.50;52.50
22645;DHT22;11489;50.834;6.752;2023-07-08T07:49:24;24.80;53.10
22645;DHT22;11489;50.834;6.752;2023-07-08T07:51:49;25.10;52.90
22645;DHT22;11489;50.834;6.752;2023-07-08T07:54:16;25.40;52.80
22645;DHT22;11489;50.834;6.752;2023-07-08T07:56:41;25.80;52.30
22645;DHT22;11489;50.834;6.752;2023-07-08T07:59:07;26.10;51.80
22645;DHT22;11489;50.834;6.752;2023-07-08T08:01:33;26.50;51.40
22645;DHT22;11489;50.834;6.752;2023-07-08T08:03:58;26.90;51.00
22645;DHT22;11489;50.834;6.752;2023-07-08T08:06:24;27.20;50.40
22645;DHT22;11489;50.834;6.752;2023-07-08T08:08:51;27.50;50.00
22645;DHT22;11489;50.834;6.752;2023-07-08T08:11:16;27.80;49.40
22645;DHT22;11489;50.834;6.752;2023-07-08T08:13:42;28.20;49.00
22645;DHT22;11489;50.834;6.752;2023-07-08T08:16:08;28.40;48.50
22645;DHT22;11489;50.834;6.752;2023-07-08T08:18:34;28.70;47.80
22645;DHT22;11489;50.834;6.752;2023-07-08T08:21:00;28.80;47.20
22645;DHT22;11489;50.834;6.752;2023-07-08T08:23:26;28.90;46.70
22645;DHT22;11489;50.834;6.752;2023-07-08T08:25:52;29.00;46.20
22645;DHT22;11489;50.834;6.752;2023-07-08T08:28:18;29.00;45.70
22645;DHT22;11489;50.834;6.752;2023-07-08T08:30:50;28.90;45.40
22645;DHT22;11489;50.834;6.752;2023-07-08T08:33:17;28.90;45.00
22645;DHT22;11489;50.834;6.752;2023-07-08T08:35:43;28.90;45.10
22645;DHT22;11489;50.834;6.752;2023-07-08T08:38:09;28.90;45.00
22645;DHT22;11489;50.834;6.752;2023-07-08T08:40:35;29.00;44.70
22645;DHT22;11489;50.834;6.752;2023-07-08T08:43:06;29.00;44.30
22645;DHT22;11489;50.834;6.752;2023-07-08T08:45:39;29.00;44.00
22645;DHT22;11489;50.834;6.752;2023-07-08T08:48:11;29.10;44.20
22645;DHT22;11489;50.834;6.752;2023-07-08T08:53:12;29.60;44.20
22645;DHT22;11489;50.834;6.752;2023-07-08T08:55:38;29.80;44.20
22645;DHT22;11489;50.834;6.752;2023-07-08T09:00:59;30.50;43.40
22645;DHT22;11489;50.834;6.752;2023-07-08T09:03:50;30.80;42.50
22645;DHT22;11489;50.834;6.752;2023-07-08T09:06:20;31.10;41.80
22645;DHT22;11489;50.834;6.752;2023-07-08T09:08:49;31.50;42.70
22645;DHT22;11489;50.834;6.752;2023-07-08T09:14:00;32.10;40.40
22645;DHT22;11489;50.834;6.752;2023-07-08T09:19:33;32.70;39.70
22645;DHT22;11489;50.834;6.752;2023-07-08T09:25:05;33.30;38.80
22645;DHT22;11489;50.834;6.752;2023-07-08T09:27:36;33.50;39.50
22645;DHT22;11489;50.834;6.752;2023-07-08T09:30:02;33.80;39.60
22645;DHT22;11489;50.834;6.752;2023-07-08T09:32:28;34.00;39.30
22645;DHT22;11489;50.834;6.752;2023-07-08T09:34:56;34.30;39.10
22645;DHT22;11489;50.834;6.752;2023-07-08T09:37:28;34.50;38.50
22645;DHT22;11489;50.834;6.752;2023-07-08T09:39:55;34.70;38.10
22645;DHT22;11489;50.834;6.752;2023-07-08T09:42:33;35.00;37.70
22645;DHT22;11489;50.834;6.752;2023-07-08T09:45:11;35.10;37.00
22645;DHT22;11489;50.834;6.752;2023-07-08T09:47:37;35.20;36.60
22645;DHT22;11489;50.834;6.752;2023-07-08T09:50:35;35.40;36.40
22645;DHT22;11489;50.834;6.752;2023-07-08T09:53:01;35.50;35.50
22645;DHT22;11489;50.834;6.752;2023-07-08T09:55:27;35.50;35.70
22645;DHT22;11489;50.834;6.752;2023-07-08T09:57:55;35.50;35.50
22645;DHT22;11489;50.834;6.752;2023-07-08T10:00:29;35.60;35.30
22645;DHT22;11489;50.834;6.752;2023-07-08T10:03:03;35.70;34.70
22645;DHT22;11489;50.834;6.752;2023-07-08T10:05:43;35.80;34.60
22645;DHT22;11489;50.834;6.752;2023-07-08T10:08:17;35.90;33.70
22645;DHT22;11489;50.834;6.752;2023-07-08T10:10:46;36.00;34.10
22645;DHT22;11489;50.834;6.752;2023-07-08T10:13:23;36.10;34.30
22645;DHT22;11489;50.834;6.752;2023-07-08T10:15:51;36.20;33.10
22645;DHT22;11489;50.834;6.752;2023-07-08T10:18:28;36.40;33.70
22645;DHT22;11489;50.834;6.752;2023-07-08T10:26:35;36.60;32.60
22645;DHT22;11489;50.834;6.752;2023-07-08T10:32:00;36.80;31.90
22645;DHT22;11489;50.834;6.752;2023-07-08T10:45:26;37.40;32.30
22645;DHT22;11489;50.834;6.752;2023-07-08T10:48:29;37.60;31.00
22645;DHT22;11489;50.834;6.752;2023-07-08T10:51:20;37.70;30.70
22645;DHT22;11489;50.834;6.752;2023-07-08T10:56:28;37.90;31.20
22645;DHT22;11489;50.834;6.752;2023-07-08T11:07:53;38.40;30.60
22645;DHT22;11489;50.834;6.752;2023-07-08T11:10:28;38.60;30.20
22645;DHT22;11489;50.834;6.752;2023-07-08T11:15:43;38.70;29.80
22645;DHT22;11489;50.834;6.752;2023-07-08T11:18:20;38.70;29.70
22645;DHT22;11489;50.834;6.752;2023-07-08T11:23:38;38.80;29.00
22645;DHT22;11489;50.834;6.752;2023-07-08T11:28:44;38.80;28.70
22645;DHT22;11489;50.834;6.752;2023-07-08T11:31:12;38.70;29.30
22645;DHT22;11489;50.834;6.752;2023-07-08T11:33:39;38.70;29.10
22645;DHT22;11489;50.834;6.752;2023-07-08T11:36:05;38.70;29.10
22645;DHT22;11489;50.834;6.752;2023-07-08T11:38:33;38.70;29.20
22645;DHT22;11489;50.834;6.752;2023-07-08T11:41:03;38.80;29.10
22645;DHT22;11489;50.834;6.752;2023-07-08T11:43:59;38.90;29.10
22645;DHT22;11489;50.834;6.752;2023-07-08T11:46:30;39.10;28.40
22645;DHT22;11489;50.834;6.752;2023-07-08T11:49:04;39.20;28.80
22645;DHT22;11489;50.834;6.752;2023-07-08T11:51:34;39.20;28.50
22645;DHT22;11489;50.834;6.752;2023-07-08T11:57:05;39.20;28.30
22645;DHT22;11489;50.834;6.752;2023-07-08T11:59:40;39.30;28.10
22645;DHT22;11489;50.834;6.752;2023-07-08T12:02:18;39.30;28.10
22645;DHT22;11489;50.834;6.752;2023-07-08T12:05:01;39.40;28.30
22645;DHT22;11489;50.834;6.752;2023-07-08T12:07:47;39.50;27.70
22645;DHT22;11489;50.834;6.752;2023-07-08T12:10:23;39.60;27.90
22645;DHT22;11489;50.834;6.752;2023-07-08T12:12:50;39.60;28.00
22645;DHT22;11489;50.834;6.752;2023-07-08T12:15:23;39.70;28.20
22645;DHT22;11489;50.834;6.752;2023-07-08T12:17:55;39.70;27.30
22645;DHT22;11489;50.834;6.752;2023-07-08T12:20:24;39.70;27.60
22645;DHT22;11489;50.834;6.752;2023-07-08T12:22:51;39.80;27.50
22645;DHT22;11489;50.834;6.752;2023-07-08T12:25:19;39.80;27.50
22645;DHT22;11489;50.834;6.752;2023-07-08T12:27:46;39.80;27.40
22645;DHT22;11489;50.834;6.752;2023-07-08T12:30:13;39.70;27.30
22645;DHT22;11489;50.834;6.752;2023-07-08T12:32:40;39.70;27.70
22645;DHT22;11489;50.834;6.752;2023-07-08T12:35:25;39.60;27.20
22645;DHT22;11489;50.834;6.752;2023-07-08T12:37:54;39.50;26.70
22645;DHT22;11489;50.834;6.752;2023-07-08T12:40:22;39.40;27.00
22645;DHT22;11489;50.834;6.752;2023-07-08T12:42:49;39.40;27.20
22645;DHT22;11489;50.834;6.752;2023-07-08T12:45:17;39.30;27.10
22645;DHT22;11489;50.834;6.752;2023-07-08T12:47:44;39.30;27.40
22645;DHT22;11489;50.834;6.752;2023-07-08T12:50:11;39.20;27.20
22645;DHT22;11489;50.834;6.752;2023-07-08T12:52:37;39.10;26.80
22645;DHT22;11489;50.834;6.752;2023-07-08T12:55:03;39.10;26.80
22645;DHT22;11489;50.834;6.752;2023-07-08T12:57:29;39.00;27.10
22645;DHT22;11489;50.834;6.752;2023-07-08T12:59:55;39.00;27.10
22645;DHT22;11489;50.834;6.752;2023-07-08T13:02:22;39.00;26.90
22645;DHT22;11489;50.834;6.752;2023-07-08T13:04:56;39.00;26.90
22645;DHT22;11489;50.834;6.752;2023-07-08T13:07:40;39.00;26.90
22645;DHT22;11489;50.834;6.752;2023-07-08T13:10:07;39.00;27.00
22645;DHT22;11489;50.834;6.752;2023-07-08T13:12:36;38.90;26.70
22645;DHT22;11489;50.834;6.752;2023-07-08T13:15:05;38.80;26.70
22645;DHT22;11489;50.834;6.752;2023-07-08T13:17:31;38.80;26.80
22645;DHT22;11489;50.834;6.752;2023-07-08T13:19:59;38.70;26.90
22645;DHT22;11489;50.834;6.752;2023-07-08T13:22:25;38.70;26.90
22645;DHT22;11489;50.834;6.752;2023-07-08T13:24:59;38.60;26.70
22645;DHT22;11489;50.834;6.752;2023-07-08T13:27:26;38.50;26.70
22645;DHT22;11489;50.834;6.752;2023-07-08T13:29:53;38.30;26.50
22645;DHT22;11489;50.834;6.752;2023-07-08T13:32:19;38.10;26.70
22645;DHT22;11489;50.834;6.752;2023-07-08T13:34:48;37.90;26.80
22645;DHT22;11489;50.834;6.752;2023-07-08T13:37:15;37.70;26.80
22645;DHT22;11489;50.834;6.752;2023-07-08T13:39:46;37.60;27.10
22645;DHT22;11489;50.834;6.752;2023-07-08T13:42:12;37.60;27.10
22645;DHT22;11489;50.834;6.752;2023-07-08T13:44:46;37.50;27.40
22645;DHT22;11489;50.834;6.752;2023-07-08T13:47:28;37.40;27.30
22645;DHT22;11489;50.834;6.752;2023-07-08T13:50:07;37.50;27.50
22645;DHT22;11489;50.834;6.752;2023-07-08T13:52:37;37.50;27.60
22645;DHT22;11489;50.834;6.752;2023-07-08T13:55:09;37.50;27.60
22645;DHT22;11489;50.834;6.752;2023-07-08T13:57:41;37.40;27.10
22645;DHT22;11489;50.834;6.752;2023-07-08T14:00:08;37.30;27.20
22645;DHT22;11489;50.834;6.752;2023-07-08T14:02:34;37.10;27.20
22645;DHT22;11489;50.834;6.752;2023-07-08T14:05:01;37.00;27.20
22645;DHT22;11489;50.834;6.752;2023-07-08T14:07:32;36.90;27.40
22645;DHT22;11489;50.834;6.752;2023-07-08T14:09:58;36.80;27.50
22645;DHT22;11489;50.834;6.752;2023-07-08T14:12:24;36.80;27.80
22645;DHT22;11489;50.834;6.752;2023-07-08T14:14:50;36.70;27.70
22645;DHT22;11489;50.834;6.752;2023-07-08T14:17:24;36.70;27.70
22645;DHT22;11489;50.834;6.752;2023-07-08T14:19:50;36.70;28.00
22645;DHT22;11489;50.834;6.752;2023-07-08T14:22:22;36.90;28.30
22645;DHT22;11489;50.834;6.752;2023-07-08T14:24:48;37.10;28.20
22645;DHT22;11489;50.834;6.752;2023-07-08T14:27:13;37.30;28.10
22645;DHT22;11489;50.834;6.752;2023-07-08T14:29:42;37.30;27.80
22645;DHT22;11489;50.834;6.752;2023-07-08T14:32:14;37.40;27.60
22645;DHT22;11489;50.834;6.752;2023-07-08T14:34:40;37.40;27.40
22645;DHT22;11489;50.834;6.752;2023-07-08T14:37:14;37.30;27.50
22645;DHT22;11489;50.834;6.752;2023-07-08T14:39:40;37.30;27.50
22645;DHT22;11489;50.834;6.752;2023-07-08T14:42:10;37.30;27.60
22645;DHT22;11489;50.834;6.752;2023-07-08T14:44:37;37.40;27.70
22645;DHT22;11489;50.834;6.752;2023-07-08T14:47:13;37.40;27.90
22645;DHT22;11489;50.834;6.752;2023-07-08T14:49:39;37.50;27.90
22645;DHT22;11489;50.834;6.752;2023-07-08T14:52:06;37.50;27.90
22645;DHT22;11489;50.834;6.752;2023-07-08T14:54:32;37.50;27.80
22645;DHT22;11489;50.834;6.752;2023-07-08T14:56:58;37.50;27.70
22645;DHT22;11489;50.834;6.752;2023-07-08T14:59:28;37.50;27.80
22645;DHT22;11489;50.834;6.752;2023-07-08T15:01:55;37.40;27.80
22645;DHT22;11489;50.834;6.752;2023-07-08T15:04:21;37.30;27.90
22645;DHT22;11489;50.834;6.752;2023-07-08T15:06:47;37.30;27.80
22645;DHT22;11489;50.834;6.752;2023-07-08T15:09:15;37.10;27.90
22645;DHT22;11489;50.834;6.752;2023-07-08T15:11:42;37.00;28.00
22645;DHT22;11489;50.834;6.752;2023-07-08T15:14:18;37.00;28.30
22645;DHT22;11489;50.834;6.752;2023-07-08T15:16:45;36.90;28.30
22645;DHT22;11489;50.834;6.752;2023-07-08T15:19:11;36.80;28.30
22645;DHT22;11489;50.834;6.752;2023-07-08T15:21:38;36.80;28.30
22645;DHT22;11489;50.834;6.752;2023-07-08T15:24:13;36.60;28.20
22645;DHT22;11489;50.834;6.752;2023-07-08T15:26:42;36.50;28.30
22645;DHT22;11489;50.834;6.752;2023-07-08T15:29:19;36.30;28.30
22645;DHT22;11489;50.834;6.752;2023-07-08T15:31:46;36.10;28.50
22645;DHT22;11489;50.834;6.752;2023-07-08T15:34:22;36.00;28.70
22645;DHT22;11489;50.834;6.752;2023-07-08T15:36:48;35.90;28.90
22645;DHT22;11489;50.834;6.752;2023-07-08T15:39:15;35.70;28.90
22645;DHT22;11489;50.834;6.752;2023-07-08T15:41:41;35.60;29.00
22645;DHT22;11489;50.834;6.752;2023-07-08T15:44:09;35.60;29.10
22645;DHT22;11489;50.834;6.752;2023-07-08T15:46:40;35.50;29.20
22645;DHT22;11489;50.834;6.752;2023-07-08T15:49:24;35.40;29.20
22645;DHT22;11489;50.834;6.752;2023-07-08T15:51:52;35.40;29.40
22645;DHT22;11489;50.834;6.752;2023-07-08T15:54:19;35.30;29.50
22645;DHT22;11489;50.834;6.752;2023-07-08T15:56:46;35.30;29.60
22645;DHT22;11489;50.834;6.752;2023-07-08T15:59:15;35.20;29.50
22645;DHT22;11489;50.834;6.752;2023-07-08T16:01:42;35.30;29.70
22645;DHT22;11489;50.834;6.752;2023-07-08T16:04:37;35.30;29.60
22645;DHT22;11489;50.834;6.752;2023-07-08T16:07:03;35.30;29.40
22645;DHT22;11489;50.834;6.752;2023-07-08T16:09:30;35.30;29.40
22645;DHT22;11489;50.834;6.752;2023-07-08T16:11:55;35.40;29.40
22645;DHT22;11489;50.834;6.752;2023-07-08T16:14:21;35.40;29.40
22645;DHT22;11489;50.834;6.752;2023-07-08T16:16:47;35.30;29.50
22645;DHT22;11489;50.834;6.752;2023-07-08T16:19:14;35.30;29.50
22645;DHT22;11489;50.834;6.752;2023-07-08T16:21:40;35.30;29.40
22645;DHT22;11489;50.834;6.752;2023-07-08T16:24:06;35.30;29.50
22645;DHT22;11489;50.834;6.752;2023-07-08T16:26:33;35.30;29.80
22645;DHT22;11489;50.834;6.752;2023-07-08T16:28:59;35.30;29.70
22645;DHT22;11489;50.834;6.752;2023-07-08T16:31:25;35.30;29.80
22645;DHT22;11489;50.834;6.752;2023-07-08T16:33:54;35.30;29.90
22645;DHT22;11489;50.834;6.752;2023-07-08T16:36:25;35.20;30.00
22645;DHT22;11489;50.834;6.752;2023-07-08T16:38:52;35.20;30.70